Terminal Aerodrome Forecast
Issued by NWS

Home | Current Version | Previous Version | Graphics & Text | Print | Product List | Glossary On
Versions: 1 2 3 4 5 6 7 8 9 10 11 12 13 14 15 16 17 18 19 20 21
396
FTUS43 KLSX 161316 AAA
TAFSUS
TAF AMD
KSUS 161316Z 1613/1712 29010KT P6SM BKN035
      TEMPO 1614/1616 BKN030
     FM161600 29012KT P6SM BKN025
     FM162100 30012KT P6SM BKN035
     FM170200 30006KT P6SM BKN045
     FM170600 29006KT P6SM SCT250=

USA.gov is the U.S. government's official web portal to all federal, state and local government web resources and services.